createdAt,value
2019-02-24T00:00:50.172Z,-9.84
2019-02-24T00:03:21.127Z,-9.83
2019-02-24T00:05:51.883Z,-9.90
2019-02-24T00:08:22.518Z,-10.01
2019-02-24T00:10:53.393Z,-9.87
2019-02-24T00:13:25.168Z,-9.91
2019-02-24T00:15:56.126Z,-10.01
2019-02-24T00:18:26.879Z,-10.04
2019-02-24T00:20:57.522Z,-10.02
2019-02-24T00:23:28.389Z,-10.08
2019-02-24T00:25:59.145Z,-10.11
2019-02-24T00:28:29.894Z,-10.10
2019-02-24T00:31:00.751Z,-10.12
2019-02-24T00:33:31.610Z,-10.08
2019-02-24T00:36:02.346Z,-10.03
2019-02-24T00:38:32.894Z,-10.10
2019-02-24T00:41:03.769Z,-10.16
2019-02-24T00:43:34.520Z,-10.22
2019-02-24T00:46:05.276Z,-10.30
2019-02-24T00:48:35.926Z,-10.25
2019-02-24T00:51:06.783Z,-10.16
2019-02-24T00:53:37.418Z,-9.99
2019-02-24T00:56:08.188Z,-10.11
2019-02-24T00:58:38.837Z,-10.24
2019-02-24T01:01:09.591Z,-10.29
2019-02-24T01:03:40.230Z,-10.33
2019-02-24T01:06:10.998Z,-10.40
2019-02-24T01:08:41.631Z,-10.36
2019-02-24T01:11:12.489Z,-10.34
2019-02-24T01:13:44.283Z,-10.17
2019-02-24T01:16:15.139Z,-10.22
2019-02-24T01:18:45.893Z,-10.34
2019-02-24T01:21:16.545Z,-10.39
2019-02-24T01:23:47.402Z,-10.36
2019-02-24T01:26:18.135Z,-10.33
2019-02-24T01:28:48.907Z,-10.45
2019-02-24T01:31:19.865Z,-10.61
2019-02-24T01:33:50.621Z,-10.46
2019-02-24T01:36:21.372Z,-10.34
2019-02-24T01:38:52.026Z,-10.41
2019-02-24T01:41:22.880Z,-10.36
2019-02-24T01:43:53.516Z,-10.42
2019-02-24T01:46:24.286Z,-10.47
2019-02-24T01:48:54.820Z,-10.39
2019-02-24T01:51:25.691Z,-10.37
2019-02-24T01:53:56.443Z,-10.32
2019-02-24T01:56:27.197Z,-10.39
2019-02-24T01:58:57.850Z,-10.24
2019-02-24T02:01:28.690Z,-10.42
2019-02-24T02:03:59.544Z,-10.43
2019-02-24T02:06:29.306Z,-10.52
2019-02-24T02:08:59.842Z,-10.41
2019-02-24T02:11:30.582Z,-10.48
2019-02-24T02:14:02.269Z,-10.49
2019-02-24T02:16:33.125Z,-10.50
2019-02-24T02:19:03.761Z,-10.65
2019-02-24T02:21:34.637Z,-10.70
2019-02-24T02:24:05.492Z,-10.76
2019-02-24T02:26:36.246Z,-10.82
2019-02-24T02:29:06.898Z,-10.84
2019-02-24T02:31:37.735Z,-10.82
2019-02-24T02:34:08.509Z,-10.95
2019-02-24T02:36:39.260Z,-11.02
2019-02-24T02:39:10.001Z,-11.08
2019-02-24T02:41:40.806Z,-11.07
2019-02-24T02:44:11.620Z,-11.08
2019-02-24T02:46:42.276Z,-10.89
2019-02-24T02:49:13.129Z,-10.95
2019-02-24T02:51:43.866Z,-11.05
2019-02-24T02:54:14.517Z,-11.01
2019-02-24T02:56:45.172Z,-11.00
2019-02-24T02:59:15.926Z,-10.97
2019-02-24T03:01:46.803Z,-10.90
2019-02-24T03:04:17.552Z,-11.03
2019-02-24T03:07:05.080Z,-10.94
2019-02-24T03:09:35.934Z,-10.94
2019-02-24T03:12:06.695Z,-11.08
2019-02-24T03:14:38.362Z,-11.05
2019-02-24T03:17:09.321Z,-11.11
2019-02-24T03:19:39.857Z,-11.13
2019-02-24T03:22:10.626Z,-11.14
2019-02-24T03:24:41.481Z,-11.21
2019-02-24T03:27:12.232Z,-11.26
2019-02-24T03:29:42.884Z,-11.35
2019-02-24T03:32:13.844Z,-11.40
2019-02-24T03:34:44.598Z,-11.42
2019-02-24T03:37:15.247Z,-11.41
2019-02-24T03:39:46.108Z,-11.36
2019-02-24T03:42:16.960Z,-11.23
2019-02-24T03:44:47.716Z,-11.18
2019-02-24T03:47:18.363Z,-11.19
2019-02-24T03:49:49.103Z,-11.26
2019-02-24T03:52:19.855Z,-11.24
2019-02-24T03:54:50.628Z,-11.30
2019-02-24T03:57:21.278Z,-11.31
2019-02-24T03:59:52.135Z,-11.26
2019-02-24T04:02:22.991Z,-11.27
2019-02-24T04:04:53.626Z,-11.39
2019-02-24T04:07:24.292Z,-11.56
2019-02-24T04:09:55.032Z,-11.60
2019-02-24T04:12:25.888Z,-11.51
2019-02-24T04:14:57.680Z,-11.52
2019-02-24T04:17:28.536Z,-11.50
2019-02-24T04:19:59.066Z,-11.57
2019-02-24T04:22:29.943Z,-11.52
2019-02-24T04:25:00.694Z,-11.64
2019-02-24T04:27:31.449Z,-11.62
2019-02-24T04:30:02.101Z,-11.56
2019-02-24T04:32:32.956Z,-11.61
2019-02-24T04:35:03.589Z,-11.62
2019-02-24T04:37:34.361Z,-11.54
2019-02-24T04:40:06.243Z,-11.48
2019-02-24T04:42:36.571Z,-11.34
2019-02-24T04:45:07.240Z,-11.35
2019-02-24T04:47:38.093Z,-11.33
2019-02-24T04:50:08.849Z,-11.46
2019-02-24T04:52:39.598Z,-11.47
2019-02-24T04:55:10.251Z,-11.39
2019-02-24T04:57:41.091Z,-11.26
2019-02-24T05:00:11.744Z,-10.97
2019-02-24T05:02:42.497Z,-10.66
2019-02-24T05:05:13.164Z,-10.71
2019-02-24T05:07:44.024Z,-10.55
2019-02-24T05:10:14.677Z,-10.40
2019-02-24T05:12:45.514Z,-10.17
2019-02-24T05:15:17.085Z,-10.01
2019-02-24T05:17:47.545Z,-9.93
2019-02-24T05:20:18.182Z,-9.89
2019-02-24T05:22:49.063Z,-9.79
2019-02-24T05:25:19.792Z,-9.52
2019-02-24T05:27:50.545Z,-9.33
2019-02-24T05:30:21.197Z,-9.24
2019-02-24T05:32:52.075Z,-9.12
2019-02-24T05:35:22.718Z,-9.00
2019-02-24T05:37:53.460Z,-8.74
2019-02-24T05:40:24.005Z,-8.67
2019-02-24T05:42:54.657Z,-8.50
2019-02-24T05:45:25.533Z,-8.30
2019-02-24T05:47:56.270Z,-8.18
2019-02-24T05:50:26.919Z,-7.97
2019-02-24T05:52:57.573Z,-7.71
2019-02-24T05:55:28.444Z,-7.57
2019-02-24T05:57:59.304Z,-7.28
2019-02-24T06:00:29.940Z,-6.95
2019-02-24T06:03:00.705Z,-6.86
2019-02-24T06:05:31.357Z,-6.88
2019-02-24T06:08:02.218Z,-6.62
2019-02-24T06:10:32.852Z,-6.52
2019-02-24T06:13:03.600Z,-6.49
2019-02-24T06:15:35.191Z,-6.48
2019-02-24T06:18:05.641Z,-6.23
2019-02-24T06:20:37.986Z,-6.06
2019-02-24T06:23:08.679Z,-5.98
2019-02-24T06:25:39.418Z,-5.93
2019-02-24T06:28:10.184Z,-6.16
2019-02-24T06:30:40.839Z,-6.24
2019-02-24T06:33:11.593Z,-6.09
2019-02-24T06:35:42.347Z,-5.72
2019-02-24T06:38:13.081Z,-5.51
2019-02-24T06:40:43.756Z,-5.25
2019-02-24T06:43:14.388Z,-5.25
2019-02-24T06:45:45.140Z,-5.29
2019-02-24T06:48:15.891Z,-5.22
2019-02-24T06:50:50.839Z,-5.01
2019-02-24T06:53:21.615Z,-5.01
2019-02-24T06:55:52.272Z,-4.62
2019-02-24T06:58:23.116Z,-4.62
2019-02-24T07:00:53.872Z,-4.60
2019-02-24T07:03:25.046Z,-4.76
2019-02-24T07:05:55.586Z,-4.91
2019-02-24T07:08:26.424Z,-4.64
2019-02-24T07:10:57.091Z,-4.35
2019-02-24T07:13:27.827Z,-3.97
2019-02-24T07:15:59.404Z,-3.97
2019-02-24T07:18:30.204Z,-4.09
2019-02-24T07:21:01.030Z,-3.99
2019-02-24T07:23:31.867Z,-4.24
2019-02-24T07:26:02.637Z,-4.06
2019-02-24T07:28:33.288Z,-3.83
2019-02-24T07:31:04.143Z,-3.42
2019-02-24T07:33:34.106Z,-3.43
2019-02-24T07:36:04.613Z,-3.52
2019-02-24T07:38:35.488Z,-3.38
2019-02-24T07:41:07.977Z,-3.16
2019-02-24T07:43:38.614Z,-3.28
2019-02-24T07:46:09.485Z,-3.09
2019-02-24T07:48:40.239Z,-2.83
2019-02-24T07:51:12.374Z,-2.74
2019-02-24T07:53:43.180Z,-2.53
2019-02-24T07:56:14.034Z,-2.41
2019-02-24T07:58:44.667Z,-2.52
2019-02-24T08:01:15.439Z,-2.38
2019-02-24T08:03:46.091Z,-2.27
2019-02-24T08:06:16.929Z,-2.08
2019-02-24T08:08:47.597Z,-2.06
2019-02-24T08:11:18.234Z,-2.17
2019-02-24T08:13:48.211Z,-2.23
2019-02-24T08:16:19.639Z,-2.01
2019-02-24T08:18:52.037Z,-2.25
2019-02-24T08:21:22.594Z,-2.13
2019-02-24T08:23:53.248Z,-1.97
2019-02-24T08:26:23.316Z,-1.79
2019-02-24T08:28:53.713Z,-1.47
2019-02-24T08:31:23.794Z,-1.58
2019-02-24T08:33:54.303Z,-1.45
2019-02-24T08:36:24.973Z,-1.31
2019-02-24T08:38:54.926Z,-1.02
2019-02-24T08:41:25.461Z,-0.98
2019-02-24T08:43:55.414Z,-1.04
2019-02-24T08:46:25.943Z,-1.09
2019-02-24T08:48:56.798Z,-1.11
2019-02-24T08:51:27.449Z,-1.02
2019-02-24T08:53:58.303Z,-1.10
2019-02-24T08:56:28.956Z,-0.74
2019-02-24T08:58:59.708Z,-0.55
2019-02-24T09:01:30.360Z,-0.21
2019-02-24T09:04:01.366Z,-0.20
2019-02-24T09:06:32.073Z,-0.03
2019-02-24T09:09:02.837Z,0.49
2019-02-24T09:11:32.788Z,0.27
2019-02-24T09:14:03.191Z,0.19
2019-02-24T09:16:34.091Z,0.29
2019-02-24T09:19:04.818Z,-0.04
2019-02-24T09:21:35.468Z,0.27
2019-02-24T09:24:05.739Z,0.89
2019-02-24T09:26:35.837Z,1.05
2019-02-24T09:29:05.819Z,0.94
2019-02-24T09:31:36.340Z,1.29
2019-02-24T09:34:06.504Z,0.98
2019-02-24T09:36:36.823Z,1.52
2019-02-24T09:39:07.476Z,1.83
2019-02-24T09:41:38.332Z,1.40
2019-02-24T09:44:09.066Z,1.34
2019-02-24T09:46:38.945Z,2.16
2019-02-24T09:49:11.085Z,1.92
2019-02-24T09:51:41.755Z,1.88
2019-02-24T09:54:11.607Z,2.89
2019-02-24T09:56:42.135Z,1.55
2019-02-24T09:59:12.202Z,0.86
2019-02-24T10:01:42.605Z,0.80
2019-02-24T10:04:12.628Z,1.16
2019-02-24T10:06:43.090Z,1.30
2019-02-24T10:09:13.965Z,1.38
2019-02-24T10:11:44.511Z,1.76
2019-02-24T10:14:14.475Z,1.84
2019-02-24T10:16:45.918Z,2.10
2019-02-24T10:19:16.776Z,2.75
2019-02-24T10:21:47.322Z,3.32
2019-02-24T10:24:17.277Z,3.12
2019-02-24T10:26:47.692Z,3.57
2019-02-24T10:29:18.343Z,3.77
2019-02-24T10:31:48.220Z,3.31
2019-02-24T10:34:18.741Z,3.53
2019-02-24T10:36:49.597Z,3.08
2019-02-24T10:39:29.355Z,3.71
2019-02-24T10:41:53.742Z,3.26
2019-02-24T10:44:24.217Z,3.64
2019-02-24T10:46:54.164Z,4.23
2019-02-24T10:49:24.696Z,3.53
2019-02-24T10:51:55.330Z,3.92
2019-02-24T10:54:25.212Z,4.21
2019-02-24T10:56:55.612Z,4.60
2019-02-24T10:59:25.581Z,4.61
2019-02-24T11:01:55.893Z,4.17
2019-02-24T11:04:26.441Z,3.65
2019-02-24T11:06:56.419Z,3.17
2019-02-24T11:09:26.943Z,3.69
2019-02-24T11:11:57.491Z,3.59
2019-02-24T11:14:28.040Z,2.75
2019-02-24T11:16:59.816Z,2.76
2019-02-24T11:19:30.553Z,2.52
2019-02-24T11:22:01.120Z,2.64
2019-02-24T11:24:31.084Z,2.83
2019-02-24T11:27:01.592Z,2.24
2019-02-24T11:29:32.368Z,2.14
2019-02-24T11:32:02.315Z,2.38
2019-02-24T11:34:32.826Z,2.41
2019-02-24T11:37:02.807Z,2.92
2019-02-24T11:39:33.310Z,3.15
2019-02-24T11:42:03.777Z,3.63
2019-02-24T11:44:33.845Z,3.40
2019-02-24T11:47:04.576Z,3.33
2019-02-24T11:49:34.214Z,3.32
2019-02-24T11:52:05.031Z,3.82
2019-02-24T11:54:35.856Z,4.35
2019-02-24T11:57:05.454Z,3.89
2019-02-24T11:59:37.519Z,3.92
2019-02-24T12:02:08.480Z,3.32
2019-02-24T12:04:38.337Z,2.80
2019-02-24T12:07:08.873Z,2.56
2019-02-24T12:09:38.712Z,2.31
2019-02-24T12:12:09.468Z,2.57
2019-02-24T12:14:41.531Z,2.88
2019-02-24T12:17:13.308Z,2.83
2019-02-24T12:19:44.147Z,2.95
2019-02-24T12:22:14.409Z,2.33
2019-02-24T12:24:44.471Z,2.39
2019-02-24T12:27:14.892Z,2.96
2019-02-24T12:29:44.846Z,2.96
2019-02-24T12:32:15.376Z,3.26
2019-02-24T12:34:45.338Z,3.26
2019-02-24T12:37:17.461Z,3.29
2019-02-24T12:39:47.927Z,3.31
2019-02-24T12:42:18.800Z,3.13
2019-02-24T12:44:49.332Z,3.09
2019-02-24T12:47:19.415Z,3.18
2019-02-24T12:49:49.941Z,2.69
2019-02-24T12:52:20.799Z,3.04
2019-02-24T12:54:51.224Z,3.34
2019-02-24T12:57:21.202Z,3.34
2019-02-24T12:59:51.729Z,3.47
2019-02-24T13:02:21.689Z,3.38
2019-02-24T13:04:53.293Z,3.31
2019-02-24T13:07:23.887Z,3.59
2019-02-24T13:09:53.838Z,3.37
2019-02-24T13:12:24.372Z,2.98
2019-02-24T13:14:54.436Z,2.90
2019-02-24T13:17:25.883Z,2.96
2019-02-24T13:19:56.822Z,2.74
2019-02-24T13:22:27.591Z,2.58
2019-02-24T13:24:57.655Z,2.85
2019-02-24T13:27:28.178Z,2.39
2019-02-24T13:29:58.139Z,2.39
2019-02-24T13:32:28.560Z,2.41
2019-02-24T13:34:59.400Z,2.61
2019-02-24T13:37:30.782Z,2.45
2019-02-24T13:40:01.226Z,2.12
2019-02-24T13:42:31.184Z,2.16
2019-02-24T13:45:01.714Z,1.92
2019-02-24T13:47:31.780Z,1.89
2019-02-24T13:50:02.186Z,1.68
2019-02-24T13:52:32.749Z,1.68
2019-02-24T13:55:02.601Z,1.59
2019-02-24T13:57:33.133Z,1.54
2019-02-24T14:00:03.393Z,1.42
2019-02-24T14:02:33.510Z,1.31
2019-02-24T14:05:04.254Z,1.32
2019-02-24T14:07:34.511Z,1.27
2019-02-24T14:10:07.096Z,1.23
2019-02-24T14:12:37.452Z,1.23
2019-02-24T14:15:12.505Z,1.16
2019-02-24T14:17:42.951Z,1.08
2019-02-24T14:20:13.104Z,1.05
2019-02-24T14:22:43.637Z,0.98
2019-02-24T14:25:14.843Z,1.00
2019-02-24T14:27:45.659Z,1.00
2019-02-24T14:30:17.220Z,1.00
2019-02-24T14:32:48.186Z,1.02
2019-02-24T14:35:20.276Z,1.04
2019-02-24T14:37:50.721Z,1.03
2019-02-24T14:40:20.669Z,1.00
2019-02-24T14:42:51.201Z,0.97
2019-02-24T14:45:24.102Z,0.94
2019-02-24T14:47:54.844Z,0.91
2019-02-24T14:50:25.611Z,0.81
2019-02-24T14:52:56.247Z,0.79
2019-02-24T14:55:27.019Z,0.69
2019-02-24T14:57:57.873Z,0.61
2019-02-24T15:00:28.524Z,0.62
2019-02-24T15:02:58.589Z,0.55
2019-02-24T15:05:28.991Z,0.48
2019-02-24T15:07:59.175Z,0.47
2019-02-24T15:10:29.701Z,0.49
2019-02-24T15:13:00.351Z,0.42
2019-02-24T15:15:33.337Z,0.40
2019-02-24T15:18:04.926Z,0.34
2019-02-24T15:20:35.678Z,0.30
2019-02-24T15:23:06.739Z,0.20
2019-02-24T15:25:37.289Z,0.22
2019-02-24T15:28:08.146Z,0.21
2019-02-24T15:30:39.827Z,0.20
2019-02-24T15:33:10.166Z,0.16
2019-02-24T15:35:40.804Z,0.17
2019-02-24T15:38:11.570Z,0.09
2019-02-24T15:40:42.226Z,-0.05
2019-02-24T15:43:13.078Z,-0.08
2019-02-24T15:45:43.716Z,-0.16
2019-02-24T15:48:14.485Z,-0.29
2019-02-24T15:50:45.137Z,-0.34
2019-02-24T15:53:15.991Z,-0.29
2019-02-24T15:55:46.847Z,-0.33
2019-02-24T15:58:17.990Z,-0.37
2019-02-24T16:00:48.562Z,-0.42
2019-02-24T16:03:19.397Z,-0.58
2019-02-24T16:05:50.050Z,-0.55
2019-02-24T16:08:20.803Z,-0.54
2019-02-24T16:10:51.458Z,-0.50
2019-02-24T16:13:22.328Z,-0.59
2019-02-24T16:15:53.080Z,-0.71
2019-02-24T16:18:24.857Z,-0.63
2019-02-24T16:20:55.596Z,-0.66
2019-02-24T16:23:25.567Z,-0.58
2019-02-24T16:25:56.096Z,-0.64
2019-02-24T16:28:26.834Z,-0.67
2019-02-24T16:30:57.590Z,-0.70
2019-02-24T16:33:28.463Z,-0.67
2019-02-24T16:35:59.095Z,-0.70
2019-02-24T16:38:30.789Z,-0.63
2019-02-24T16:41:01.542Z,-0.65
2019-02-24T16:43:32.194Z,-0.65
2019-02-24T16:46:03.049Z,-0.67
2019-02-24T16:48:33.807Z,-0.73
2019-02-24T16:51:04.438Z,-0.72
2019-02-24T16:53:36.458Z,-0.69
2019-02-24T16:56:06.983Z,-0.69
2019-02-24T16:58:37.841Z,-0.82
2019-02-24T17:01:08.474Z,-0.93
2019-02-24T17:03:39.229Z,-0.96
2019-02-24T17:06:09.896Z,-0.89
2019-02-24T17:08:40.752Z,-0.90
2019-02-24T17:11:11.609Z,-0.78
2019-02-24T17:13:42.365Z,-0.90
2019-02-24T17:16:13.015Z,-0.79
2019-02-24T17:18:45.612Z,-0.67
2019-02-24T17:21:16.464Z,-0.65
2019-02-24T17:23:49.839Z,-0.67
2019-02-24T17:26:19.286Z,-0.68
2019-02-24T17:28:50.157Z,-0.68
2019-02-24T17:31:28.149Z,-0.75
2019-02-24T17:33:52.999Z,-0.74
2019-02-24T17:36:23.752Z,-0.68
2019-02-24T17:38:54.605Z,-0.63
2019-02-24T17:41:25.359Z,-0.64
2019-02-24T17:43:56.010Z,-0.65
2019-02-24T17:46:26.747Z,-0.70
2019-02-24T17:48:57.521Z,-0.69
2019-02-24T17:51:28.255Z,-0.71
2019-02-24T17:53:58.225Z,-0.76
2019-02-24T17:56:28.758Z,-0.69
2019-02-24T17:58:59.394Z,-0.55
2019-02-24T18:01:30.050Z,-0.48
2019-02-24T18:04:00.864Z,-0.50
2019-02-24T18:06:31.551Z,-0.44
2019-02-24T18:09:02.307Z,-0.40
2019-02-24T18:11:33.181Z,-0.38
2019-02-24T18:14:04.040Z,-0.39
2019-02-24T18:16:34.788Z,-0.24
2019-02-24T18:19:07.180Z,-0.27
2019-02-24T18:21:40.157Z,-0.26
2019-02-24T18:24:13.088Z,-0.18
2019-02-24T18:26:43.822Z,-0.16
2019-02-24T18:29:14.471Z,-0.17
2019-02-24T18:31:45.335Z,-0.12
2019-02-24T18:34:17.010Z,-0.08
2019-02-24T18:36:47.450Z,-0.12
2019-02-24T18:39:18.201Z,-0.11
2019-02-24T18:41:48.958Z,-0.05
2019-02-24T18:44:19.144Z,-0.08
2019-02-24T18:46:49.443Z,-0.08
2019-02-24T18:49:20.214Z,-0.07
2019-02-24T18:51:50.864Z,-0.08
2019-02-24T18:54:21.704Z,-0.09
2019-02-24T18:56:52.354Z,-0.07
2019-02-24T18:59:23.125Z,-0.05
2019-02-24T19:01:53.455Z,-0.02
2019-02-24T19:04:23.532Z,-0.09
2019-02-24T19:06:54.059Z,-0.08
2019-02-24T19:09:24.589Z,-0.08
2019-02-24T19:11:55.460Z,-0.10
2019-02-24T19:14:26.321Z,-0.06
2019-02-24T19:16:57.292Z,-0.03
2019-02-24T19:19:27.928Z,0.00
2019-02-24T19:21:58.889Z,-0.03
2019-02-24T19:24:29.638Z,-0.06
2019-02-24T19:27:00.398Z,-0.02
2019-02-24T19:29:31.251Z,-0.05
2019-02-24T19:32:01.985Z,-0.07
2019-02-24T19:34:32.760Z,-0.04
2019-02-24T19:37:03.596Z,-0.05
2019-02-24T19:39:34.468Z,0.05
2019-02-24T19:42:05.224Z,0.00
2019-02-24T19:44:35.755Z,-0.01
2019-02-24T19:47:06.612Z,-0.08
2019-02-24T19:49:37.365Z,-0.10
2019-02-24T19:52:08.136Z,-0.08
2019-02-24T19:54:38.787Z,-0.06
2019-02-24T19:57:09.627Z,-0.08
2019-02-24T19:59:40.501Z,-0.12
2019-02-24T20:02:12.772Z,-0.13
2019-02-24T20:04:43.134Z,-0.12
2019-02-24T20:07:13.083Z,-0.09
2019-02-24T20:09:43.623Z,-0.14
2019-02-24T20:12:14.354Z,-0.12
2019-02-24T20:14:45.229Z,-0.15
2019-02-24T20:17:16.086Z,-0.16
2019-02-24T20:19:47.756Z,-0.18
2019-02-24T20:22:18.601Z,-0.11
2019-02-24T20:24:49.368Z,-0.17
2019-02-24T20:27:20.329Z,-0.09
2019-02-24T20:29:51.184Z,-0.08
2019-02-24T20:32:21.837Z,-0.17
2019-02-24T20:34:52.691Z,-0.16
2019-02-24T20:37:23.446Z,-0.20
2019-02-24T20:39:54.199Z,-0.25
2019-02-24T20:42:24.849Z,-0.23
2019-02-24T20:44:55.707Z,-0.19
2019-02-24T20:47:26.561Z,-0.20
2019-02-24T20:49:57.419Z,-0.20
2019-02-24T20:52:28.170Z,-0.20
2019-02-24T20:54:58.821Z,-0.16
2019-02-24T20:57:29.782Z,-0.17
2019-02-24T21:00:00.540Z,-0.21
2019-02-24T21:02:31.294Z,-0.22
2019-02-24T21:05:02.148Z,-0.23
2019-02-24T21:07:33.002Z,-0.24
2019-02-24T21:10:04.454Z,-0.27
2019-02-24T21:12:35.017Z,-0.27
2019-02-24T21:15:11.704Z,-0.27
2019-02-24T21:17:42.273Z,-0.24
2019-02-24T21:20:22.109Z,-0.28
2019-02-24T21:22:52.865Z,-0.31
2019-02-24T21:25:23.517Z,-0.28
2019-02-24T21:27:54.373Z,-0.25
2019-02-24T21:30:25.127Z,-0.25
2019-02-24T21:32:56.290Z,-0.20
2019-02-24T21:35:26.839Z,-0.19
2019-02-24T21:37:57.742Z,-0.23
2019-02-24T21:40:28.548Z,-0.24
2019-02-24T21:42:59.204Z,-0.25
2019-02-24T21:45:29.938Z,-0.27
2019-02-24T21:48:00.691Z,-0.27
2019-02-24T21:50:31.350Z,-0.25
2019-02-24T21:53:01.524Z,-0.25
2019-02-24T21:55:32.056Z,-0.26
2019-02-24T21:58:04.351Z,-0.26
2019-02-24T22:00:34.990Z,-0.28
2019-02-24T22:03:05.828Z,-0.24
2019-02-24T22:05:36.598Z,-0.28
2019-02-24T22:08:07.251Z,-0.22
2019-02-24T22:10:37.987Z,-0.19
2019-02-24T22:13:08.862Z,-0.21
2019-02-24T22:15:39.614Z,-0.28
2019-02-24T22:18:10.266Z,-0.10
2019-02-24T22:20:41.226Z,-0.10
2019-02-24T22:23:12.082Z,-0.13
2019-02-24T22:25:42.731Z,-0.21
2019-02-24T22:28:13.578Z,-0.27
2019-02-24T22:30:44.341Z,-0.20
2019-02-24T22:33:15.077Z,-0.12
2019-02-24T22:35:45.748Z,-0.23
2019-02-24T22:38:16.610Z,-0.32
2019-02-24T22:40:54.184Z,-0.39
2019-02-24T22:43:19.526Z,-0.43
2019-02-24T22:45:50.198Z,-0.55
2019-02-24T22:48:21.072Z,-0.49
2019-02-24T22:50:51.906Z,-0.49
2019-02-24T22:53:22.659Z,-0.57
2019-02-24T22:55:53.191Z,-0.55
2019-02-24T22:58:24.065Z,-0.58
2019-02-24T23:01:01.963Z,-0.59
2019-02-24T23:03:34.751Z,-0.52
2019-02-24T23:06:05.103Z,-0.49
2019-02-24T23:08:35.874Z,-0.57
2019-02-24T23:11:06.732Z,-0.59
2019-02-24T23:13:39.334Z,-0.47
2019-02-24T23:16:09.551Z,-0.39
2019-02-24T23:18:39.632Z,-0.48
2019-02-24T23:21:11.084Z,-0.52
2019-02-24T23:23:42.034Z,-0.37
2019-02-24T23:26:12.791Z,-0.36
2019-02-24T23:28:43.444Z,-0.47
2019-02-24T23:31:14.187Z,-0.62
2019-02-24T23:33:45.050Z,-0.66
2019-02-24T23:36:15.683Z,-0.66
2019-02-24T23:38:45.764Z,-0.68
2019-02-24T23:41:16.271Z,-0.75
2019-02-24T23:43:46.937Z,-0.64
2019-02-24T23:46:17.677Z,-0.69
2019-02-24T23:48:48.431Z,-0.67
2019-02-24T23:51:19.205Z,-0.61
2019-02-24T23:53:49.856Z,-0.63
2019-02-24T23:56:20.708Z,-0.65
2019-02-24T23:58:51.567Z,-0.66
